Terminal Aerodrome Forecast
Issued by NWS Topeka, KS

Home | Current Version | Previous Version | Graphics & Text | Print | Product List | Glossary On
Versions: 1 2 3 4 5 6 7 8 9 10 11 12 13 14 15
000
FTUS43 KTOP 171400 AAA
TAFTOP
TAF AMD
KTOP 171435Z 1715/1812 36011KT P6SM BKN020
     FM171700 02006KT P6SM VCSH BKN090
     FM180000 12003KT P6SM SKC=

USA.gov is the U.S. government's official web portal to all federal, state and local government web resources and services.